Change the Weather History Date:

Friday, November 30, 2012

  Actual Average Record
Temperature  
Mean Temperature 42 °F -  
Max Temperature 53 °F 48 °F 59 °F (2014)
Min Temperature 30 °F 36 °F 26 °F (2013)
Degree Days  
Heating Degree Days 24    
Moisture  
Dew Point 31 °F    
Average Humidity 72    
Maximum Humidity 93    
Minimum Humidity 44    
Precipitation  
Precipitation 0.00 in - - ()
Sea Level Pressure  
Sea Level Pressure 30.13 in    
Wind  
Wind Speed 6 mph ()    
Max Wind Speed 13 mph    
Max Gust Speed -    
Visibility 10.0 miles    
Events      
Averages and records for this station are not official NWS values.
T = Trace of Precipitation, MM = Missing Value Source: Averaged Metar Reports

Daily Weather History Graph

Daily Weather History Graph

Search for Another Location

Airport or City:

Trip Planner

Search our weather history database for the weather conditions in past years. The results will help you decide how hot, cold, wet, or windy it might be!

Date:

Astronomy

Nov. 30, 2012 Rise Set
Actual Time 7:49 AM EST 5:18 PM EST
Civil Twilight 7:19 AM EST 5:49 PM EST
Nautical Twilight 6:45 AM EST 6:23 PM EST
Astronomical Twilight 6:12 AM EST 6:56 PM EST
Moon 7:13 PM EST (11/30) 9:21 AM EST (11/30)
Length of Visible Light 10h 30m
Length of Day
9h 29m
Waning Gibbous, 96% of the Moon is Illuminated
Nov 30
Waning Gibbous
Dec 6
Last Quarter
Dec 13
New
Dec 20
First Quarter
Dec 28
Full

Hourly Weather History & Observations

Time (EST) Temp. Windchill Dew Point Humidity Pressure Visibility Wind Dir Wind Speed Gust Speed Precip Events Conditions
12:15 AM 32.0 °F 24.8 °F 28.4 °F 87% 30.16 in 10.0 mi SE 8.1 mph - N/A   Clear
12:35 AM 33.8 °F 28.6 °F 30.2 °F 87% 30.15 in 10.0 mi SSE 5.8 mph - N/A   Clear
12:55 AM 33.8 °F 27.0 °F 30.2 °F 87% 30.15 in 10.0 mi SE 8.1 mph - N/A   Clear
1:15 AM 33.8 °F 27.7 °F 30.2 °F 87% 30.15 in 10.0 mi SE 6.9 mph - N/A   Clear
1:35 AM 32.0 °F 25.6 °F 30.2 °F 93% 30.15 in 10.0 mi SE 6.9 mph - N/A   Clear
1:55 AM 33.8 °F 26.4 °F 30.2 °F 87% 30.15 in 10.0 mi SE 9.2 mph - N/A   Clear
2:15 AM 33.8 °F 27.7 °F 30.2 °F 87% 30.14 in 10.0 mi SSE 6.9 mph - N/A   Clear
2:35 AM 33.8 °F 27.0 °F 30.2 °F 87% 30.14 in 10.0 mi SSE 8.1 mph - N/A   Clear
2:55 AM 32.0 °F 26.4 °F 30.2 °F 93% 30.15 in 10.0 mi SE 5.8 mph - N/A   Clear
3:15 AM 32.0 °F 26.4 °F 28.4 °F 87% 30.15 in 10.0 mi SSE 5.8 mph - N/A   Clear
3:35 AM 32.0 °F 26.4 °F 28.4 °F 87% 30.14 in 10.0 mi SE 5.8 mph - N/A   Clear
3:55 AM 32.0 °F 25.6 °F 28.4 °F 87% 30.14 in 10.0 mi SE 6.9 mph - N/A   Clear
4:15 AM 32.0 °F 27.5 °F 28.4 °F 87% 30.14 in 10.0 mi SE 4.6 mph - N/A   Clear
4:35 AM 30.2 °F 23.4 °F 28.4 °F 93% 30.13 in 10.0 mi SE 6.9 mph - N/A   Clear
4:55 AM 32.0 °F 25.6 °F 28.4 °F 87% 30.13 in 10.0 mi SSE 6.9 mph - N/A   Clear
5:15 AM 32.0 °F 25.6 °F 28.4 °F 87% 30.13 in 10.0 mi SSE 6.9 mph - N/A   Clear
5:35 AM 30.2 °F 23.4 °F 28.4 °F 93% 30.13 in 10.0 mi SSE 6.9 mph - N/A   Clear
5:55 AM 30.2 °F 22.6 °F 26.6 °F 86% 30.11 in 10.0 mi SSE 8.1 mph - N/A   Clear
6:15 AM 30.2 °F 23.4 °F 28.4 °F 93% 30.11 in 10.0 mi South 6.9 mph - N/A   Clear
6:35 AM 32.0 °F 26.4 °F 28.4 °F 87% 30.12 in 10.0 mi South 5.8 mph - N/A   Clear
6:55 AM 32.0 °F - 28.4 °F 87% 30.13 in 10.0 mi Calm Calm - N/A   Clear
7:15 AM 32.0 °F 28.7 °F 28.4 °F 87% 30.13 in 10.0 mi South 3.5 mph - N/A   Clear
7:35 AM 30.2 °F 24.3 °F 26.6 °F 86% 30.12 in 10.0 mi South 5.8 mph - N/A   Clear
7:55 AM 32.0 °F 24.8 °F 28.4 °F 87% 30.12 in 10.0 mi South 8.1 mph - N/A   Clear
8:15 AM 32.0 °F 25.6 °F 28.4 °F 87% 30.13 in 10.0 mi South 6.9 mph - N/A   Clear
8:35 AM 33.8 °F 27.7 °F 30.2 °F 87% 30.12 in 10.0 mi South 6.9 mph - N/A   Scattered Clouds
8:55 AM 35.6 °F 29.2 °F 32.0 °F 87% 30.12 in 10.0 mi South 8.1 mph - N/A   Clear
9:15 AM 37.4 °F 33.8 °F 32.0 °F 81% 30.12 in 10.0 mi South 4.6 mph - N/A   Mostly Cloudy
9:35 AM 41.0 °F 36.4 °F 32.0 °F 70% 30.12 in 10.0 mi South 6.9 mph - N/A   Overcast
9:55 AM 41.0 °F 39.0 °F 32.0 °F 70% 30.14 in 10.0 mi SSW 3.5 mph - N/A   Mostly Cloudy
10:15 AM 42.8 °F 38.6 °F 32.0 °F 66% 30.14 in 10.0 mi SW 6.9 mph - N/A   Overcast
10:35 AM 44.6 °F 40.7 °F 32.0 °F 61% 30.14 in 10.0 mi SSW 6.9 mph - N/A   Mostly Cloudy
10:55 AM 46.4 °F 41.5 °F 32.0 °F 57% 30.14 in 10.0 mi SSW 10.4 mph - N/A   Scattered Clouds
11:15 AM 46.4 °F 41.1 °F 32.0 °F 57% 30.14 in 10.0 mi SW 11.5 mph - N/A   Clear
11:35 AM 48.2 °F - 32.0 °F 54% 30.13 in 10.0 mi SW 11.5 mph - N/A   Clear
11:55 AM 50.0 °F - 32.0 °F 50% 30.12 in 10.0 mi SW 12.7 mph - N/A   Clear
12:15 PM 50.0 °F - 32.0 °F 50% 30.11 in 10.0 mi SW 11.5 mph - N/A   Clear
12:35 PM 51.8 °F - 32.0 °F 47% 30.11 in 10.0 mi WSW 8.1 mph - N/A   Clear
12:55 PM 51.8 °F - 32.0 °F 47% 30.10 in 10.0 mi SW 6.9 mph - N/A   Clear
1:15 PM 53.6 °F - 32.0 °F 44% 30.10 in 10.0 mi WSW 9.2 mph - N/A   Clear
1:35 PM 53.6 °F - 32.0 °F 44% 30.09 in 10.0 mi SW 9.2 mph - N/A   Clear
1:55 PM 53.6 °F - 32.0 °F 44% 30.09 in 10.0 mi SW 6.9 mph - N/A   Clear
2:15 PM 53.6 °F - 32.0 °F 44% 30.08 in 10.0 mi SW 9.2 mph - N/A   Scattered Clouds
2:35 PM 53.6 °F - 32.0 °F 44% 30.08 in 10.0 mi SW 6.9 mph - N/A   Clear
2:55 PM 53.6 °F - 32.0 °F 44% 30.08 in 10.0 mi SSW 6.9 mph - N/A   Scattered Clouds
3:15 PM 53.6 °F - 32.0 °F 44% 30.08 in 10.0 mi SSW 11.5 mph - N/A   Scattered Clouds
3:35 PM 53.6 °F - 32.0 °F 44% 30.08 in 10.0 mi SW 9.2 mph - N/A   Overcast
3:55 PM 53.6 °F - 33.8 °F 47% 30.09 in 10.0 mi SW 10.4 mph - N/A   Mostly Cloudy
4:15 PM 51.8 °F - 33.8 °F 50% 30.09 in 10.0 mi SW 6.9 mph - N/A   Mostly Cloudy
4:35 PM 51.8 °F - 33.8 °F 50% 30.09 in 10.0 mi SW 6.9 mph - N/A   Scattered Clouds
4:55 PM 50.0 °F - 33.8 °F 54% 30.10 in 10.0 mi SSW 5.8 mph - N/A   Clear
5:15 PM 46.4 °F 44.3 °F 33.8 °F 62% 30.10 in 10.0 mi SSW 4.6 mph - N/A   Clear
5:35 PM 44.6 °F 41.4 °F 33.8 °F 66% 30.11 in 10.0 mi South 5.8 mph - N/A   Clear
5:55 PM 44.6 °F 43.1 °F 33.8 °F 66% 30.12 in 10.0 mi South 3.5 mph - N/A   Clear
6:15 PM 42.8 °F - 33.8 °F 70% 30.13 in 10.0 mi Calm Calm - N/A   Clear
6:35 PM 42.8 °F - 32.0 °F 66% 30.14 in 10.0 mi Calm Calm - N/A   Clear
6:55 PM 42.8 °F 40.1 °F 32.0 °F 66% 30.14 in 10.0 mi ESE 4.6 mph - N/A   Mostly Cloudy
7:15 PM 41.0 °F 39.0 °F 33.8 °F 76% 30.15 in 10.0 mi SE 3.5 mph - N/A   Overcast
7:35 PM 42.8 °F 41.1 °F 33.8 °F 70% 30.16 in 10.0 mi SSE 3.5 mph - N/A   Overcast
7:55 PM 42.8 °F 39.3 °F 33.8 °F 70% 30.16 in 10.0 mi SSE 5.8 mph - N/A   Overcast
8:15 PM 41.0 °F 37.1 °F 33.8 °F 76% 30.16 in 10.0 mi SE 5.8 mph - N/A   Overcast
8:35 PM 41.0 °F 39.0 °F 35.6 °F 81% 30.16 in 10.0 mi SE 3.5 mph - N/A   Overcast
8:55 PM 42.8 °F - 35.6 °F 76% 30.15 in 10.0 mi Calm Calm - N/A   Overcast
9:15 PM 44.6 °F 42.2 °F 33.8 °F 66% 30.15 in 10.0 mi ESE 4.6 mph - N/A   Overcast
9:35 PM 41.0 °F 38.0 °F 33.8 °F 76% 30.14 in 10.0 mi SE 4.6 mph - N/A   Scattered Clouds
10:15 PM 39.2 °F 33.6 °F 33.8 °F 81% 30.15 in 10.0 mi SSE 8.1 mph - N/A   Clear
10:35 PM 37.4 °F 31.4 °F 33.8 °F 87% 30.14 in 10.0 mi SSE 8.1 mph - N/A   Clear
10:55 PM 37.4 °F 31.4 °F 32.0 °F 81% 30.14 in 10.0 mi SSE 8.1 mph - N/A   Clear
11:15 PM 35.6 °F 28.6 °F 32.0 °F 87% 30.14 in 10.0 mi SSE 9.2 mph - N/A   Clear
11:35 PM 37.4 °F 32.1 °F 32.0 °F 81% 30.15 in 10.0 mi SSE 6.9 mph - N/A   Clear
11:55 PM 35.6 °F 30.7 °F 32.0 °F 87% 30.16 in 10.0 mi SSE 5.8 mph - N/A   Clear